sensor_id;sensor_type;location;lat;lon;timestamp;P1;durP1;ratioP1;P2;durP2;ratioP2
59169;SDS011;52474;52.236;5.114;2023-03-01T00:01:05;25.10;;;12.20;;
59169;SDS011;52474;52.236;5.114;2023-03-01T00:03:34;20.30;;;10.30;;
59169;SDS011;52474;52.236;5.114;2023-03-01T00:06:01;21.58;;;10.90;;
59169;SDS011;52474;52.236;5.114;2023-03-01T00:08:29;21.67;;;11.15;;
59169;SDS011;52474;52.236;5.114;2023-03-01T00:11:06;25.42;;;12.50;;
59169;SDS011;52474;52.236;5.114;2023-03-01T00:13:36;27.10;;;12.38;;
59169;SDS011;52474;52.236;5.114;2023-03-01T00:16:03;22.58;;;11.23;;
59169;SDS011;52474;52.236;5.114;2023-03-01T00:18:31;28.17;;;13.18;;
59169;SDS011;52474;52.236;5.114;2023-03-01T00:21:00;28.38;;;12.18;;
59169;SDS011;52474;52.236;5.114;2023-03-01T00:23:31;27.27;;;12.68;;
59169;SDS011;52474;52.236;5.114;2023-03-01T00:25:59;23.25;;;12.00;;
59169;SDS011;52474;52.236;5.114;2023-03-01T00:28:27;29.63;;;12.55;;
59169;SDS011;52474;52.236;5.114;2023-03-01T00:30:53;24.10;;;11.65;;
59169;SDS011;52474;52.236;5.114;2023-03-01T00:33:20;25.95;;;11.32;;
59169;SDS011;52474;52.236;5.114;2023-03-01T00:35:47;25.17;;;11.43;;
59169;SDS011;52474;52.236;5.114;2023-03-01T00:38:13;22.40;;;11.10;;
59169;SDS011;52474;52.236;5.114;2023-03-01T00:40:40;25.67;;;12.60;;
59169;SDS011;52474;52.236;5.114;2023-03-01T00:43:07;21.08;;;10.75;;
59169;SDS011;52474;52.236;5.114;2023-03-01T00:45:34;23.13;;;11.15;;
59169;SDS011;52474;52.236;5.114;2023-03-01T00:48:03;24.02;;;10.75;;
59169;SDS011;52474;52.236;5.114;2023-03-01T00:50:33;26.10;;;11.82;;
59169;SDS011;52474;52.236;5.114;2023-03-01T00:53:00;20.27;;;10.98;;
59169;SDS011;52474;52.236;5.114;2023-03-01T00:55:26;18.17;;;10.88;;
59169;SDS011;52474;52.236;5.114;2023-03-01T00:57:52;21.20;;;11.27;;
59169;SDS011;52474;52.236;5.114;2023-03-01T01:00:19;20.58;;;11.23;;
59169;SDS011;52474;52.236;5.114;2023-03-01T01:02:48;22.07;;;10.77;;
59169;SDS011;52474;52.236;5.114;2023-03-01T01:05:15;20.83;;;11.07;;
59169;SDS011;52474;52.236;5.114;2023-03-01T01:07:47;23.20;;;10.93;;
59169;SDS011;52474;52.236;5.114;2023-03-01T01:10:13;21.55;;;11.13;;
59169;SDS011;52474;52.236;5.114;2023-03-01T01:12:43;23.40;;;10.60;;
59169;SDS011;52474;52.236;5.114;2023-03-01T01:15:11;23.65;;;12.65;;
59169;SDS011;52474;52.236;5.114;2023-03-01T01:17:40;20.73;;;10.70;;
59169;SDS011;52474;52.236;5.114;2023-03-01T01:20:09;21.77;;;11.57;;
59169;SDS011;52474;52.236;5.114;2023-03-01T01:22:40;21.48;;;10.02;;
59169;SDS011;52474;52.236;5.114;2023-03-01T01:25:06;19.67;;;10.70;;
59169;SDS011;52474;52.236;5.114;2023-03-01T01:27:34;20.45;;;10.40;;
59169;SDS011;52474;52.236;5.114;2023-03-01T01:30:00;19.73;;;9.85;;
59169;SDS011;52474;52.236;5.114;2023-03-01T01:32:27;21.02;;;10.23;;
59169;SDS011;52474;52.236;5.114;2023-03-01T01:34:55;24.10;;;10.98;;
59169;SDS011;52474;52.236;5.114;2023-03-01T01:37:22;23.13;;;11.48;;
59169;SDS011;52474;52.236;5.114;2023-03-01T01:39:48;24.63;;;11.80;;
59169;SDS011;52474;52.236;5.114;2023-03-01T01:42:17;20.73;;;10.75;;
59169;SDS011;52474;52.236;5.114;2023-03-01T01:44:45;23.25;;;11.20;;
59169;SDS011;52474;52.236;5.114;2023-03-01T01:47:17;21.80;;;11.10;;
59169;SDS011;52474;52.236;5.114;2023-03-01T01:49:51;20.88;;;11.13;;
59169;SDS011;52474;52.236;5.114;2023-03-01T01:54:49;22.23;;;10.77;;
59169;SDS011;52474;52.236;5.114;2023-03-01T01:57:41;21.95;;;11.52;;
59169;SDS011;52474;52.236;5.114;2023-03-01T02:00:19;22.17;;;11.07;;
59169;SDS011;52474;52.236;5.114;2023-03-01T02:02:49;20.80;;;10.82;;
59169;SDS011;52474;52.236;5.114;2023-03-01T02:05:24;23.17;;;11.65;;
59169;SDS011;52474;52.236;5.114;2023-03-01T02:08:05;22.48;;;11.43;;
59169;SDS011;52474;52.236;5.114;2023-03-01T02:10:33;24.80;;;11.93;;
59169;SDS011;52474;52.236;5.114;2023-03-01T02:13:01;19.48;;;10.85;;
59169;SDS011;52474;52.236;5.114;2023-03-01T02:15:33;24.05;;;11.32;;
59169;SDS011;52474;52.236;5.114;2023-03-01T02:18:02;23.70;;;11.57;;
59169;SDS011;52474;52.236;5.114;2023-03-01T02:20:42;26.17;;;10.95;;
59169;SDS011;52474;52.236;5.114;2023-03-01T02:23:22;20.60;;;10.80;;
59169;SDS011;52474;52.236;5.114;2023-03-01T02:26:00;24.25;;;11.10;;
59169;SDS011;52474;52.236;5.114;2023-03-01T02:28:37;23.42;;;10.90;;
59169;SDS011;52474;52.236;5.114;2023-03-01T02:31:06;21.98;;;10.48;;
59169;SDS011;52474;52.236;5.114;2023-03-01T02:33:53;22.88;;;10.40;;
59169;SDS011;52474;52.236;5.114;2023-03-01T02:36:23;25.33;;;11.63;;
59169;SDS011;52474;52.236;5.114;2023-03-01T02:38:53;23.52;;;11.05;;
59169;SDS011;52474;52.236;5.114;2023-03-01T02:41:23;24.08;;;11.15;;
59169;SDS011;52474;52.236;5.114;2023-03-01T02:43:52;21.00;;;11.48;;
59169;SDS011;52474;52.236;5.114;2023-03-01T02:46:23;30.48;;;11.82;;
59169;SDS011;52474;52.236;5.114;2023-03-01T02:48:54;19.97;;;10.20;;
59169;SDS011;52474;52.236;5.114;2023-03-01T02:53:58;23.30;;;11.05;;
59169;SDS011;52474;52.236;5.114;2023-03-01T02:56:30;21.42;;;10.85;;
59169;SDS011;52474;52.236;5.114;2023-03-01T02:58:58;26.48;;;11.00;;
59169;SDS011;52474;52.236;5.114;2023-03-01T03:01:35;21.92;;;10.48;;
59169;SDS011;52474;52.236;5.114;2023-03-01T03:04:07;21.25;;;11.07;;
59169;SDS011;52474;52.236;5.114;2023-03-01T03:06:38;21.08;;;10.40;;
59169;SDS011;52474;52.236;5.114;2023-03-01T03:09:05;20.45;;;10.65;;
59169;SDS011;52474;52.236;5.114;2023-03-01T03:11:31;25.13;;;10.93;;
59169;SDS011;52474;52.236;5.114;2023-03-01T03:13:58;23.20;;;11.07;;
59169;SDS011;52474;52.236;5.114;2023-03-01T03:16:31;25.25;;;10.50;;
59169;SDS011;52474;52.236;5.114;2023-03-01T03:19:01;22.58;;;10.55;;
59169;SDS011;52474;52.236;5.114;2023-03-01T03:21:32;18.13;;;9.60;;
59169;SDS011;52474;52.236;5.114;2023-03-01T03:23:59;21.50;;;10.80;;
59169;SDS011;52474;52.236;5.114;2023-03-01T03:26:29;19.67;;;10.57;;
59169;SDS011;52474;52.236;5.114;2023-03-01T03:28:56;20.80;;;9.70;;
59169;SDS011;52474;52.236;5.114;2023-03-01T03:31:22;20.33;;;11.02;;
59169;SDS011;52474;52.236;5.114;2023-03-01T03:33:49;19.40;;;9.45;;
59169;SDS011;52474;52.236;5.114;2023-03-01T03:36:19;19.55;;;10.00;;
59169;SDS011;52474;52.236;5.114;2023-03-01T03:38:47;20.20;;;10.23;;
59169;SDS011;52474;52.236;5.114;2023-03-01T03:41:14;28.23;;;10.98;;
59169;SDS011;52474;52.236;5.114;2023-03-01T03:43:42;22.73;;;9.95;;
59169;SDS011;52474;52.236;5.114;2023-03-01T03:46:09;21.45;;;10.55;;
59169;SDS011;52474;52.236;5.114;2023-03-01T03:48:38;22.77;;;9.93;;
59169;SDS011;52474;52.236;5.114;2023-03-01T03:51:06;22.83;;;9.52;;
59169;SDS011;52474;52.236;5.114;2023-03-01T03:53:35;20.05;;;9.90;;
59169;SDS011;52474;52.236;5.114;2023-03-01T03:56:01;20.05;;;9.30;;
59169;SDS011;52474;52.236;5.114;2023-03-01T03:58:27;22.30;;;10.65;;
59169;SDS011;52474;52.236;5.114;2023-03-01T04:00:54;20.27;;;10.60;;
59169;SDS011;52474;52.236;5.114;2023-03-01T04:03:23;20.33;;;9.98;;
59169;SDS011;52474;52.236;5.114;2023-03-01T04:05:51;22.45;;;10.73;;
59169;SDS011;52474;52.236;5.114;2023-03-01T04:08:21;19.75;;;10.18;;
59169;SDS011;52474;52.236;5.114;2023-03-01T04:10:49;24.42;;;10.18;;
59169;SDS011;52474;52.236;5.114;2023-03-01T04:13:21;18.23;;;9.93;;
59169;SDS011;52474;52.236;5.114;2023-03-01T04:15:51;16.95;;;9.35;;
59169;SDS011;52474;52.236;5.114;2023-03-01T04:18:21;21.40;;;10.20;;
59169;SDS011;52474;52.236;5.114;2023-03-01T04:20:49;23.88;;;10.93;;
59169;SDS011;52474;52.236;5.114;2023-03-01T04:23:18;21.55;;;9.63;;
59169;SDS011;52474;52.236;5.114;2023-03-01T04:25:53;20.17;;;10.45;;
59169;SDS011;52474;52.236;5.114;2023-03-01T04:30:52;21.83;;;11.02;;
59169;SDS011;52474;52.236;5.114;2023-03-01T04:33:20;21.23;;;10.73;;
59169;SDS011;52474;52.236;5.114;2023-03-01T04:35:47;22.08;;;10.35;;
59169;SDS011;52474;52.236;5.114;2023-03-01T04:38:18;20.55;;;10.40;;
59169;SDS011;52474;52.236;5.114;2023-03-01T04:40:47;26.48;;;11.50;;
59169;SDS011;52474;52.236;5.114;2023-03-01T04:43:14;26.17;;;11.77;;
59169;SDS011;52474;52.236;5.114;2023-03-01T04:45:41;23.00;;;11.82;;
59169;SDS011;52474;52.236;5.114;2023-03-01T04:48:08;21.13;;;10.45;;
59169;SDS011;52474;52.236;5.114;2023-03-01T04:50:34;23.92;;;11.95;;
59169;SDS011;52474;52.236;5.114;2023-03-01T04:53:01;24.45;;;11.32;;
59169;SDS011;52474;52.236;5.114;2023-03-01T04:55:28;22.30;;;10.73;;
59169;SDS011;52474;52.236;5.114;2023-03-01T04:57:55;20.73;;;10.38;;
59169;SDS011;52474;52.236;5.114;2023-03-01T05:00:21;22.92;;;10.68;;
59169;SDS011;52474;52.236;5.114;2023-03-01T05:02:55;24.45;;;10.35;;
59169;SDS011;52474;52.236;5.114;2023-03-01T05:05:31;28.42;;;11.35;;
59169;SDS011;52474;52.236;5.114;2023-03-01T05:08:03;22.08;;;10.88;;
59169;SDS011;52474;52.236;5.114;2023-03-01T05:10:32;24.85;;;11.20;;
59169;SDS011;52474;52.236;5.114;2023-03-01T05:13:02;24.08;;;11.52;;
59169;SDS011;52474;52.236;5.114;2023-03-01T05:15:30;26.95;;;11.05;;
59169;SDS011;52474;52.236;5.114;2023-03-01T05:17:58;21.75;;;10.60;;
59169;SDS011;52474;52.236;5.114;2023-03-01T05:20:26;24.05;;;11.88;;
59169;SDS011;52474;52.236;5.114;2023-03-01T05:22:59;21.20;;;10.98;;
59169;SDS011;52474;52.236;5.114;2023-03-01T05:25:26;23.30;;;11.25;;
59169;SDS011;52474;52.236;5.114;2023-03-01T05:27:53;27.85;;;12.00;;
59169;SDS011;52474;52.236;5.114;2023-03-01T05:30:19;28.52;;;11.68;;
59169;SDS011;52474;52.236;5.114;2023-03-01T05:32:48;22.15;;;9.98;;
59169;SDS011;52474;52.236;5.114;2023-03-01T05:35:21;20.08;;;10.52;;
59169;SDS011;52474;52.236;5.114;2023-03-01T05:37:51;22.77;;;10.90;;
59169;SDS011;52474;52.236;5.114;2023-03-01T05:40:19;21.70;;;9.45;;
59169;SDS011;52474;52.236;5.114;2023-03-01T05:42:48;19.75;;;10.25;;
59169;SDS011;52474;52.236;5.114;2023-03-01T05:45:23;28.92;;;13.55;;
59169;SDS011;52474;52.236;5.114;2023-03-01T05:47:50;22.98;;;11.45;;
59169;SDS011;52474;52.236;5.114;2023-03-01T05:50:21;25.27;;;11.93;;
59169;SDS011;52474;52.236;5.114;2023-03-01T05:52:50;21.58;;;10.50;;
59169;SDS011;52474;52.236;5.114;2023-03-01T05:55:21;21.55;;;10.48;;
59169;SDS011;52474;52.236;5.114;2023-03-01T05:57:48;24.55;;;10.85;;
59169;SDS011;52474;52.236;5.114;2023-03-01T06:00:18;22.20;;;10.95;;
59169;SDS011;52474;52.236;5.114;2023-03-01T06:02:48;24.73;;;11.40;;
59169;SDS011;52474;52.236;5.114;2023-03-01T06:05:17;25.38;;;12.32;;
59169;SDS011;52474;52.236;5.114;2023-03-01T06:07:44;28.67;;;12.45;;
59169;SDS011;52474;52.236;5.114;2023-03-01T06:10:11;21.33;;;10.60;;
59169;SDS011;52474;52.236;5.114;2023-03-01T06:12:39;23.83;;;11.20;;
59169;SDS011;52474;52.236;5.114;2023-03-01T06:15:07;24.38;;;10.38;;
59169;SDS011;52474;52.236;5.114;2023-03-01T06:17:37;23.55;;;11.45;;
59169;SDS011;52474;52.236;5.114;2023-03-01T06:20:10;20.23;;;10.48;;
59169;SDS011;52474;52.236;5.114;2023-03-01T06:22:42;20.50;;;10.63;;
59169;SDS011;52474;52.236;5.114;2023-03-01T06:25:10;22.90;;;10.57;;
59169;SDS011;52474;52.236;5.114;2023-03-01T06:27:38;25.02;;;11.70;;
59169;SDS011;52474;52.236;5.114;2023-03-01T06:30:05;26.35;;;10.77;;
59169;SDS011;52474;52.236;5.114;2023-03-01T06:32:33;24.27;;;12.10;;
59169;SDS011;52474;52.236;5.114;2023-03-01T06:34:59;22.67;;;10.75;;
59169;SDS011;52474;52.236;5.114;2023-03-01T06:37:25;22.23;;;10.65;;
59169;SDS011;52474;52.236;5.114;2023-03-01T06:39:52;22.73;;;10.38;;
59169;SDS011;52474;52.236;5.114;2023-03-01T06:42:18;24.85;;;11.25;;
59169;SDS011;52474;52.236;5.114;2023-03-01T06:44:45;22.73;;;10.68;;
59169;SDS011;52474;52.236;5.114;2023-03-01T06:47:14;21.95;;;10.68;;
59169;SDS011;52474;52.236;5.114;2023-03-01T06:49:41;26.10;;;10.82;;
59169;SDS011;52474;52.236;5.114;2023-03-01T06:52:07;27.90;;;12.15;;
59169;SDS011;52474;52.236;5.114;2023-03-01T06:54:34;24.92;;;11.02;;
59169;SDS011;52474;52.236;5.114;2023-03-01T06:57:00;24.50;;;12.20;;
59169;SDS011;52474;52.236;5.114;2023-03-01T06:59:28;20.65;;;10.82;;
59169;SDS011;52474;52.236;5.114;2023-03-01T07:01:54;21.63;;;10.85;;
59169;SDS011;52474;52.236;5.114;2023-03-01T07:04:20;23.55;;;11.05;;
59169;SDS011;52474;52.236;5.114;2023-03-01T07:06:47;24.85;;;12.75;;
59169;SDS011;52474;52.236;5.114;2023-03-01T07:09:19;21.33;;;11.40;;
59169;SDS011;52474;52.236;5.114;2023-03-01T07:11:47;23.15;;;12.10;;
59169;SDS011;52474;52.236;5.114;2023-03-01T07:14:14;25.38;;;12.52;;
59169;SDS011;52474;52.236;5.114;2023-03-01T07:16:41;25.00;;;12.13;;
59169;SDS011;52474;52.236;5.114;2023-03-01T07:19:07;24.08;;;11.88;;
59169;SDS011;52474;52.236;5.114;2023-03-01T07:21:33;23.25;;;12.55;;
59169;SDS011;52474;52.236;5.114;2023-03-01T07:23:59;23.67;;;12.10;;
59169;SDS011;52474;52.236;5.114;2023-03-01T07:26:27;32.55;;;13.70;;
59169;SDS011;52474;52.236;5.114;2023-03-01T07:28:55;27.45;;;12.40;;
59169;SDS011;52474;52.236;5.114;2023-03-01T07:33:54;29.90;;;13.20;;
59169;SDS011;52474;52.236;5.114;2023-03-01T07:36:21;32.65;;;15.05;;
59169;SDS011;52474;52.236;5.114;2023-03-01T07:38:47;32.05;;;15.20;;
59169;SDS011;52474;52.236;5.114;2023-03-01T07:41:14;28.40;;;13.98;;
59169;SDS011;52474;52.236;5.114;2023-03-01T07:43:40;37.15;;;14.82;;
59169;SDS011;52474;52.236;5.114;2023-03-01T07:46:08;36.10;;;15.18;;
59169;SDS011;52474;52.236;5.114;2023-03-01T07:48:34;38.67;;;16.35;;
59169;SDS011;52474;52.236;5.114;2023-03-01T07:51:00;34.30;;;14.80;;
59169;SDS011;52474;52.236;5.114;2023-03-01T07:53:28;35.08;;;15.65;;
59169;SDS011;52474;52.236;5.114;2023-03-01T07:56:07;40.83;;;16.90;;
59169;SDS011;52474;52.236;5.114;2023-03-01T08:01:05;36.78;;;16.23;;
59169;SDS011;52474;52.236;5.114;2023-03-01T08:03:32;36.80;;;16.20;;
59169;SDS011;52474;52.236;5.114;2023-03-01T08:05:59;40.13;;;16.83;;
59169;SDS011;52474;52.236;5.114;2023-03-01T08:10:58;42.17;;;16.45;;
59169;SDS011;52474;52.236;5.114;2023-03-01T08:13:28;37.60;;;16.15;;
59169;SDS011;52474;52.236;5.114;2023-03-01T08:15:59;36.03;;;15.60;;
59169;SDS011;52474;52.236;5.114;2023-03-01T08:18:27;40.17;;;16.77;;
59169;SDS011;52474;52.236;5.114;2023-03-01T08:20:54;42.80;;;18.02;;
59169;SDS011;52474;52.236;5.114;2023-03-01T08:23:20;46.03;;;17.13;;
59169;SDS011;52474;52.236;5.114;2023-03-01T08:25:46;36.53;;;16.58;;
59169;SDS011;52474;52.236;5.114;2023-03-01T08:28:12;40.63;;;17.13;;
59169;SDS011;52474;52.236;5.114;2023-03-01T08:30:39;45.15;;;19.10;;
59169;SDS011;52474;52.236;5.114;2023-03-01T08:33:05;39.35;;;17.25;;
59169;SDS011;52474;52.236;5.114;2023-03-01T08:35:32;45.47;;;18.55;;
59169;SDS011;52474;52.236;5.114;2023-03-01T08:37:58;39.30;;;17.02;;
59169;SDS011;52474;52.236;5.114;2023-03-01T08:40:24;41.13;;;17.70;;
59169;SDS011;52474;52.236;5.114;2023-03-01T08:42:51;40.10;;;16.27;;
59169;SDS011;52474;52.236;5.114;2023-03-01T08:45:17;40.85;;;15.90;;
59169;SDS011;52474;52.236;5.114;2023-03-01T08:47:44;31.67;;;14.30;;
59169;SDS011;52474;52.236;5.114;2023-03-01T08:50:10;33.10;;;14.35;;
59169;SDS011;52474;52.236;5.114;2023-03-01T08:52:37;31.75;;;13.85;;
59169;SDS011;52474;52.236;5.114;2023-03-01T08:55:03;27.60;;;13.43;;
59169;SDS011;52474;52.236;5.114;2023-03-01T08:57:30;29.38;;;14.23;;
59169;SDS011;52474;52.236;5.114;2023-03-01T08:59:56;25.33;;;11.23;;
59169;SDS011;52474;52.236;5.114;2023-03-01T09:02:23;25.25;;;12.18;;
59169;SDS011;52474;52.236;5.114;2023-03-01T09:04:50;23.58;;;11.85;;
59169;SDS011;52474;52.236;5.114;2023-03-01T09:07:16;22.10;;;10.52;;
59169;SDS011;52474;52.236;5.114;2023-03-01T09:09:43;22.27;;;10.07;;
59169;SDS011;52474;52.236;5.114;2023-03-01T09:12:11;19.17;;;9.52;;
59169;SDS011;52474;52.236;5.114;2023-03-01T09:14:37;17.75;;;8.80;;
59169;SDS011;52474;52.236;5.114;2023-03-01T09:17:04;15.40;;;8.07;;
59169;SDS011;52474;52.236;5.114;2023-03-01T09:19:31;14.88;;;7.68;;
59169;SDS011;52474;52.236;5.114;2023-03-01T09:21:58;17.35;;;7.85;;
59169;SDS011;52474;52.236;5.114;2023-03-01T09:24:24;14.60;;;6.65;;
59169;SDS011;52474;52.236;5.114;2023-03-01T09:26:52;19.52;;;9.07;;
59169;SDS011;52474;52.236;5.114;2023-03-01T09:29:23;20.83;;;9.43;;
59169;SDS011;52474;52.236;5.114;2023-03-01T09:31:51;18.25;;;9.15;;
59169;SDS011;52474;52.236;5.114;2023-03-01T09:34:21;25.50;;;10.93;;
59169;SDS011;52474;52.236;5.114;2023-03-01T09:36:49;24.90;;;11.77;;
59169;SDS011;52474;52.236;5.114;2023-03-01T09:39:16;27.48;;;13.18;;
59169;SDS011;52474;52.236;5.114;2023-03-01T09:41:51;22.02;;;12.45;;
59169;SDS011;52474;52.236;5.114;2023-03-01T09:46:53;20.20;;;10.60;;
59169;SDS011;52474;52.236;5.114;2023-03-01T09:49:23;21.48;;;11.70;;
59169;SDS011;52474;52.236;5.114;2023-03-01T09:51:57;17.13;;;10.02;;
59169;SDS011;52474;52.236;5.114;2023-03-01T09:54:45;14.65;;;9.57;;
59169;SDS011;52474;52.236;5.114;2023-03-01T10:08:01;13.18;;;8.98;;
59169;SDS011;52474;52.236;5.114;2023-03-01T10:10:37;14.48;;;9.48;;
59169;SDS011;52474;52.236;5.114;2023-03-01T10:13:28;12.90;;;9.10;;
59169;SDS011;52474;52.236;5.114;2023-03-01T10:16:14;9.82;;;6.65;;
59169;SDS011;52474;52.236;5.114;2023-03-01T10:18:53;10.52;;;6.50;;
59169;SDS011;52474;52.236;5.114;2023-03-01T10:21:25;9.20;;;5.47;;
59169;SDS011;52474;52.236;5.114;2023-03-01T10:23:55;10.48;;;6.22;;
59169;SDS011;52474;52.236;5.114;2023-03-01T10:26:54;14.73;;;6.65;;
59169;SDS011;52474;52.236;5.114;2023-03-01T10:29:24;7.47;;;6.07;;
59169;SDS011;52474;52.236;5.114;2023-03-01T10:32:08;11.13;;;6.13;;
59169;SDS011;52474;52.236;5.114;2023-03-01T10:34:37;10.63;;;6.15;;
59169;SDS011;52474;52.236;5.114;2023-03-01T10:37:13;8.07;;;5.95;;
59169;SDS011;52474;52.236;5.114;2023-03-01T10:40:02;8.48;;;6.68;;
59169;SDS011;52474;52.236;5.114;2023-03-01T10:42:37;8.73;;;5.82;;
59169;SDS011;52474;52.236;5.114;2023-03-01T10:45:16;9.75;;;6.20;;
59169;SDS011;52474;52.236;5.114;2023-03-01T10:47:44;12.32;;;7.00;;
59169;SDS011;52474;52.236;5.114;2023-03-01T10:50:18;7.15;;;5.70;;
59169;SDS011;52474;52.236;5.114;2023-03-01T10:53:01;7.88;;;6.07;;
59169;SDS011;52474;52.236;5.114;2023-03-01T10:58:09;10.55;;;5.95;;
59169;SDS011;52474;52.236;5.114;2023-03-01T11:00:46;10.88;;;6.07;;
59169;SDS011;52474;52.236;5.114;2023-03-01T11:03:21;7.68;;;5.00;;
59169;SDS011;52474;52.236;5.114;2023-03-01T11:11:23;5.55;;;5.00;;
59169;SDS011;52474;52.236;5.114;2023-03-01T11:17:00;6.50;;;5.38;;
59169;SDS011;52474;52.236;5.114;2023-03-01T11:19:39;5.50;;;4.93;;
59169;SDS011;52474;52.236;5.114;2023-03-01T11:22:12;7.72;;;5.03;;
59169;SDS011;52474;52.236;5.114;2023-03-01T11:24:44;7.28;;;5.00;;
59169;SDS011;52474;52.236;5.114;2023-03-01T11:30:15;7.68;;;5.30;;
59169;SDS011;52474;52.236;5.114;2023-03-01T11:35:30;6.57;;;5.03;;
59169;SDS011;52474;52.236;5.114;2023-03-01T11:40:29;6.00;;;4.90;;
59169;SDS011;52474;52.236;5.114;2023-03-01T11:43:06;6.85;;;4.93;;
59169;SDS011;52474;52.236;5.114;2023-03-01T11:51:16;5.30;;;4.80;;
59169;SDS011;52474;52.236;5.114;2023-03-01T11:56:20;6.45;;;4.78;;
59169;SDS011;52474;52.236;5.114;2023-03-01T12:08:04;6.35;;;4.75;;
59169;SDS011;52474;52.236;5.114;2023-03-01T12:10:44;6.97;;;4.88;;
59169;SDS011;52474;52.236;5.114;2023-03-01T12:16:09;6.50;;;4.95;;
59169;SDS011;52474;52.236;5.114;2023-03-01T12:21:35;6.38;;;5.22;;
59169;SDS011;52474;52.236;5.114;2023-03-01T12:35:37;6.45;;;5.15;;
59169;SDS011;52474;52.236;5.114;2023-03-01T12:43:32;6.93;;;5.13;;
59169;SDS011;52474;52.236;5.114;2023-03-01T12:51:18;7.93;;;5.15;;
59169;SDS011;52474;52.236;5.114;2023-03-01T12:53:51;6.13;;;5.00;;
59169;SDS011;52474;52.236;5.114;2023-03-01T12:56:25;5.93;;;3.67;;
59169;SDS011;52474;52.236;5.114;2023-03-01T12:59:00;6.25;;;4.82;;
59169;SDS011;52474;52.236;5.114;2023-03-01T13:07:53;7.35;;;4.47;;
59169;SDS011;52474;52.236;5.114;2023-03-01T13:10:58;6.18;;;4.40;;
59169;SDS011;52474;52.236;5.114;2023-03-01T13:13:28;5.90;;;3.85;;
59169;SDS011;52474;52.236;5.114;2023-03-01T13:15:56;6.18;;;4.22;;
59169;SDS011;52474;52.236;5.114;2023-03-01T13:20:56;5.55;;;3.53;;
59169;SDS011;52474;52.236;5.114;2023-03-01T13:23:34;7.50;;;3.80;;
59169;SDS011;52474;52.236;5.114;2023-03-01T13:30:57;6.43;;;4.03;;
59169;SDS011;52474;52.236;5.114;2023-03-01T13:35:54;4.90;;;3.40;;
59169;SDS011;52474;52.236;5.114;2023-03-01T13:41:07;6.20;;;3.65;;
59169;SDS011;52474;52.236;5.114;2023-03-01T13:43:35;7.05;;;4.00;;
59169;SDS011;52474;52.236;5.114;2023-03-01T13:46:36;6.07;;;2.97;;
59169;SDS011;52474;52.236;5.114;2023-03-01T13:48:58;6.80;;;3.97;;
59169;SDS011;52474;52.236;5.114;2023-03-01T13:51:26;6.72;;;4.30;;
59169;SDS011;52474;52.236;5.114;2023-03-01T13:53:53;6.03;;;3.10;;
59169;SDS011;52474;52.236;5.114;2023-03-01T13:56:25;6.45;;;4.03;;
59169;SDS011;52474;52.236;5.114;2023-03-01T13:58:58;5.25;;;3.92;;
59169;SDS011;52474;52.236;5.114;2023-03-01T14:01:29;7.18;;;3.33;;
59169;SDS011;52474;52.236;5.114;2023-03-01T14:04:01;4.65;;;3.30;;
59169;SDS011;52474;52.236;5.114;2023-03-01T14:06:30;5.18;;;3.42;;
59169;SDS011;52474;52.236;5.114;2023-03-01T14:09:02;6.25;;;3.72;;
59169;SDS011;52474;52.236;5.114;2023-03-01T14:17:30;6.50;;;3.25;;
59169;SDS011;52474;52.236;5.114;2023-03-01T14:20:00;5.03;;;3.65;;
59169;SDS011;52474;52.236;5.114;2023-03-01T14:22:35;8.75;;;3.70;;
59169;SDS011;52474;52.236;5.114;2023-03-01T14:25:06;6.38;;;3.53;;
59169;SDS011;52474;52.236;5.114;2023-03-01T14:27:39;6.60;;;3.50;;
59169;SDS011;52474;52.236;5.114;2023-03-01T14:30:20;7.28;;;3.55;;
59169;SDS011;52474;52.236;5.114;2023-03-01T14:32:59;5.93;;;3.67;;
59169;SDS011;52474;52.236;5.114;2023-03-01T14:35:31;5.22;;;3.70;;
59169;SDS011;52474;52.236;5.114;2023-03-01T14:37:59;5.38;;;3.20;;
59169;SDS011;52474;52.236;5.114;2023-03-01T14:40:35;7.70;;;3.80;;
59169;SDS011;52474;52.236;5.114;2023-03-01T14:43:13;3.95;;;2.92;;
59169;SDS011;52474;52.236;5.114;2023-03-01T14:45:47;6.15;;;3.88;;
59169;SDS011;52474;52.236;5.114;2023-03-01T14:48:15;7.00;;;3.80;;
59169;SDS011;52474;52.236;5.114;2023-03-01T14:50:41;6.25;;;3.22;;
59169;SDS011;52474;52.236;5.114;2023-03-01T14:53:15;6.68;;;3.58;;
59169;SDS011;52474;52.236;5.114;2023-03-01T14:56:00;9.85;;;3.08;;
59169;SDS011;52474;52.236;5.114;2023-03-01T14:58:31;6.35;;;3.90;;
59169;SDS011;52474;52.236;5.114;2023-03-01T15:01:01;7.70;;;4.45;;
59169;SDS011;52474;52.236;5.114;2023-03-01T15:03:35;7.55;;;4.03;;
59169;SDS011;52474;52.236;5.114;2023-03-01T15:06:05;6.30;;;3.28;;
59169;SDS011;52474;52.236;5.114;2023-03-01T15:08:32;7.22;;;3.88;;
59169;SDS011;52474;52.236;5.114;2023-03-01T15:13:43;8.20;;;4.22;;
59169;SDS011;52474;52.236;5.114;2023-03-01T15:16:15;6.30;;;3.95;;
59169;SDS011;52474;52.236;5.114;2023-03-01T15:18:54;7.75;;;3.65;;
59169;SDS011;52474;52.236;5.114;2023-03-01T15:21:27;6.68;;;4.20;;
59169;SDS011;52474;52.236;5.114;2023-03-01T15:24:06;6.10;;;3.90;;
59169;SDS011;52474;52.236;5.114;2023-03-01T15:27:12;9.25;;;4.22;;
59169;SDS011;52474;52.236;5.114;2023-03-01T15:29:33;8.25;;;4.25;;
59169;SDS011;52474;52.236;5.114;2023-03-01T15:34:52;7.07;;;4.40;;
59169;SDS011;52474;52.236;5.114;2023-03-01T15:42:57;7.38;;;4.25;;
59169;SDS011;52474;52.236;5.114;2023-03-01T15:45:28;7.60;;;4.47;;
59169;SDS011;52474;52.236;5.114;2023-03-01T15:47:56;7.25;;;4.10;;
59169;SDS011;52474;52.236;5.114;2023-03-01T15:50:27;8.95;;;4.85;;
59169;SDS011;52474;52.236;5.114;2023-03-01T15:52:55;7.93;;;4.50;;
59169;SDS011;52474;52.236;5.114;2023-03-01T15:55:24;6.65;;;4.35;;
59169;SDS011;52474;52.236;5.114;2023-03-01T15:58:05;9.05;;;4.55;;
59169;SDS011;52474;52.236;5.114;2023-03-01T16:00:35;7.65;;;4.63;;
59169;SDS011;52474;52.236;5.114;2023-03-01T16:03:01;7.97;;;4.80;;
59169;SDS011;52474;52.236;5.114;2023-03-01T16:05:29;7.53;;;3.70;;
59169;SDS011;52474;52.236;5.114;2023-03-01T16:07:58;6.85;;;4.00;;
59169;SDS011;52474;52.236;5.114;2023-03-01T16:10:27;7.93;;;4.15;;
59169;SDS011;52474;52.236;5.114;2023-03-01T16:12:53;5.85;;;3.58;;
59169;SDS011;52474;52.236;5.114;2023-03-01T16:15:21;5.32;;;3.75;;
59169;SDS011;52474;52.236;5.114;2023-03-01T16:17:57;6.85;;;3.65;;
59169;SDS011;52474;52.236;5.114;2023-03-01T16:20:24;9.10;;;4.80;;
59169;SDS011;52474;52.236;5.114;2023-03-01T16:22:50;9.43;;;5.32;;
59169;SDS011;52474;52.236;5.114;2023-03-01T16:25:17;10.90;;;4.72;;
59169;SDS011;52474;52.236;5.114;2023-03-01T16:27:45;5.50;;;4.07;;
59169;SDS011;52474;52.236;5.114;2023-03-01T16:30:16;6.90;;;4.55;;
59169;SDS011;52474;52.236;5.114;2023-03-01T16:32:44;8.70;;;4.57;;
59169;SDS011;52474;52.236;5.114;2023-03-01T16:35:12;8.00;;;3.65;;
59169;SDS011;52474;52.236;5.114;2023-03-01T16:37:39;7.03;;;4.50;;
59169;SDS011;52474;52.236;5.114;2023-03-01T16:40:05;10.70;;;6.78;;
59169;SDS011;52474;52.236;5.114;2023-03-01T16:42:40;12.63;;;6.28;;
59169;SDS011;52474;52.236;5.114;2023-03-01T16:45:07;9.98;;;5.20;;
59169;SDS011;52474;52.236;5.114;2023-03-01T16:47:34;8.95;;;4.50;;
59169;SDS011;52474;52.236;5.114;2023-03-01T16:50:00;8.68;;;4.47;;
59169;SDS011;52474;52.236;5.114;2023-03-01T16:52:26;10.20;;;6.05;;
59169;SDS011;52474;52.236;5.114;2023-03-01T16:54:52;12.00;;;5.90;;
59169;SDS011;52474;52.236;5.114;2023-03-01T16:57:18;11.48;;;5.90;;